Nearby METAR Reports

 

KTTN - Trenton, New Jersey, USA
Distance from station: WNW 11mi, 17km
Updated: Fri, 01-Jul-2022 2:53am EDT
Clear
Clear
 Wind from calm
Wind: Calm
Temperature: 66°F , 19°C
Dew Point: 63°F , 17°C
Humidity: 88%
Barometer: 30.12 inHg , 1020 hPa
Clouds: Clear
Visibility: 10 miles , 16 km
2022/07/01 06:53 KTTN 010653Z AUTO 00000KT 10SM CLR 19/17 A3012 RMK AO2 SLP190 T01940172
KWRI - Wrightst/Mcguire, New Jersey, USA
Distance from station: SSE 14mi, 22km
Updated: Fri, 01-Jul-2022 2:56am EDT
Clear
Clear
 Wind from SSW
Wind: SSW 3 mph , 6 km/h
Temperature: 68°F , 20°C
Dew Point: 66°F , 19°C
Humidity: 94%
Barometer: 30.12 inHg , 1020 hPa
Clouds: Clear
Visibility: 10 miles , 16 km
2022/07/01 06:56 KWRI 010656Z AUTO 20003KT 10SM CLR 20/19 A3012 RMK AO2 SLP198 T01960194
 
KNEL - Lakehurst Nas, New Jersey, USA
Distance from station: SE 21mi, 34km
Updated: Fri, 01-Jul-2022 3:00am EDT
Clear
Clear
 Wind from SW
Wind: SW 5 mph , 7 km/h
Temperature: 66°F , 19°C
Dew Point: 64°F , 18°C
Humidity: 94%
Barometer: 30.11 inHg , 1019.6 hPa
Clouds: Clear
Visibility: 10 miles , 16 km
2022/07/01 07:00 KNEL 010700Z AUTO 23004KT 10SM CLR 19/18 A3011 RMK AO2 SLP194 T01940183
KPNE - Philadelphia/Ne, Pennsylvania, USA
Distance from station: WSW 22mi, 35km
Updated: Fri, 01-Jul-2022 2:54am EDT
Clear
Clear
 Wind from calm
Wind: Calm
Temperature: 73°F , 23°C
Dew Point: 68°F , 20°C
Humidity: 83%
Barometer: 30.13 inHg , 1020.3 hPa
Clouds: Clear
Visibility: 10 miles , 16 km
2022/07/01 06:54 KPNE 010654Z AUTO 00000KT 10SM CLR 23/20 A3013 RMK AO2 SLP200 T02330200
 
KVAY - Mount Holly, New Jersey, USA
Distance from station: SSW 22mi, 35km
Updated: Fri, 01-Jul-2022 2:54am EDT
Mist, Clear
Mist, Clear
 Wind from calm
Wind: Calm
Temperature: 70°F , 21°C
Dew Point: 66°F , 19°C
Humidity: 88%
Barometer: 30.12 inHg , 1020 hPa
Summary: Mist
Clouds: Clear
Visibility: 5 miles , 8 km
2022/07/01 06:54 KVAY 010654Z AUTO 00000KT 5SM BR CLR 21/19 A3012 RMK AO2 SLP198 T02110189 $
KMJX - Toms River, New Jersey, USA
Distance from station: SE 26mi, 42km
Updated: Tue, 03-May-2022 9:08am EDT
NOT Current
Overcast
Overcast
 Wind from ENE
Wind: ENE 9 mph , 15 km/h
Temperature: 55°F , 13°C
Dew Point: 50°F , 10°C
Humidity: 82%
Barometer: 30.18 inHg , 1022 hPa
Clouds: Overcast
Visibility: 10 miles , 16 km
Cloud details: Overcast 1100 ft
2022/05/03 13:08 KMJX 031308Z AUTO 06008KT 10SM OVC011 13/10 A3018 RMK AO2
 
KDYL - Doylestown, Pennsylvania, USA
Distance from station: WNW 27mi, 43km
Updated: Fri, 01-Jul-2022 2:54am EDT
Clear
Clear
 Wind from S
Wind: S 3 mph , 6 km/h
Temperature: 66°F , 19°C
Dew Point: 63°F , 17°C
Humidity: 88%
Barometer: 30.12 inHg , 1020 hPa
Clouds: Clear
Visibility: 10 miles , 16 km
2022/07/01 06:54 KDYL 010654Z AUTO 17003KT 10SM CLR 19/17 A3012 RMK AO2 SLP193 T01940167
KBLM - Belmar/Farmdale, New Jersey, USA
Distance from station: E 28mi, 45km
Updated: Fri, 01-Jul-2022 2:56am EDT
Clear
Clear
 Wind from SW
Wind: SW 5 mph , 7 km/h
Temperature: 70°F , 21°C
Dew Point: 70°F , 21°C
Humidity: 100%
Barometer: 30.13 inHg , 1020.3 hPa
Clouds: Clear
Visibility: 10 miles , 16 km
2022/07/01 06:56 KBLM 010656Z AUTO 22004KT 10SM CLR 21/21 A3013 RMK AO2 SLP203 T02060206
 
KSMQ - Somerville, New Jersey, USA
Distance from station: N 28mi, 45km
Updated: Fri, 01-Jul-2022 2:53am EDT
Clear
Clear
 Wind from calm
Wind: Calm
Temperature: 61°F , 16°C
Dew Point: 61°F , 16°C
Humidity: 100%
Barometer: 30.10 inHg , 1019.3 hPa
Clouds: Clear
Visibility: 7 miles , 11 km
2022/07/01 06:53 KSMQ 010653Z AUTO 00000KT 7SM CLR 16/16 A3010 RMK AO2 SLP192 T01610156
KLOM - Philly Wings F, Pennsylvania, USA
Distance from station: W 34mi, 54km
Updated: Fri, 01-Jul-2022 2:55am EDT
Clear
Clear
 Wind from SW
Wind: SW 3 mph , 6 km/h
Temperature: 68°F , 20°C
Dew Point: 68°F , 20°C
Humidity: 100%
Barometer: 30.13 inHg , 1020.3 hPa
Clouds: Clear
Visibility: 10 miles , 16 km
2022/07/01 06:55 KLOM 010655Z AUTO 22003KT 10SM CLR 20/20 A3013 RMK AO2 T02030197
 
KLDJ - Linden, New Jersey, USA
Distance from station: NE 35mi, 56km
Updated: Fri, 01-Jul-2022 2:55am EDT
Clear
Clear
 Wind from W
Wind: W 5 mph , 7 km/h
Temperature: 73°F , 23°C
Dew Point: 61°F , 16°C
Humidity: 65%
Barometer: 30.11 inHg , 1019.6 hPa
Clouds: Clear
Visibility: 10 miles , 16 km
2022/07/01 06:55 KLDJ 010655Z AUTO 27004KT 10SM CLR 23/16 A3011 RMK AO2 T02260159
KCKZ - Perkasie, Pennsylvania, USA
Distance from station: WNW 36mi, 58km
Updated: Fri, 01-Jul-2022 2:35am EDT
Clear
Clear
 Wind from calm
Wind: Calm
Temperature: 61°F , 16°C
Dew Point: 61°F , 16°C
Humidity: 100%
Barometer: 30.14 inHg , 1020.7 hPa
Clouds: Clear
Visibility: 10 miles , 16 km
2022/07/01 06:35 KCKZ 010635Z AUTO 00000KT 10SM CLR 16/16 A3014 RMK AO2
 
KPHL - Philadelphia, Pennsylvania, USA
Distance from station: SW 40mi, 64km
Updated: Fri, 01-Jul-2022 2:54am EDT
Clear
Clear
 Wind from S
Wind: S 8 mph , 13 km/h
Temperature: 73°F , 23°C
Dew Point: 70°F , 21°C
Humidity: 89%
Barometer: 30.12 inHg , 1020 hPa
Clouds: Clear
Visibility: 10 miles , 16 km
2022/07/01 06:54 KPHL 010654Z 19007KT 10SM CLR 23/21 A3012 RMK AO2 SLP198 T02330211
KEWR - Newark, New Jersey, USA
Distance from station: NE 41mi, 66km
Updated: Fri, 01-Jul-2022 2:51am EDT
Few Clouds
Few Clouds
 Wind from SW
Wind: SW 7 mph , 11 km/h
Temperature: 75°F , 24°C
Dew Point: 61°F , 16°C
Humidity: 61%
Barometer: 30.10 inHg , 1019.3 hPa
Clouds: Few Clouds
Visibility: 10 miles , 16 km
Cloud details: Few Clouds 25000 ft
2022/07/01 06:51 KEWR 010651Z 23006KT 10SM FEW250 24/16 A3010 RMK AO2 SLP192 T02390161
 
KMMU - Morristown Muni, New Jersey, USA
Distance from station: NNE 41mi, 66km
Updated: Fri, 01-Jul-2022 2:55am EDT
Clear
Clear
 Wind from calm
Wind: Calm
Temperature: 61°F , 16°C
Dew Point: 59°F , 15°C
Humidity: 94%
Barometer: 30.11 inHg , 1019.6 hPa
Clouds: Clear
Visibility: 10 miles , 16 km
2022/07/01 06:55 KMMU 010655Z AUTO 00000KT 10SM CLR 16/15 A3011 RMK AO2
KUKT - Quakertown Arp, Pennsylvania, USA
Distance from station: WNW 42mi, 68km
Updated: Fri, 01-Jul-2022 2:55am EDT
Clear
Clear
 Wind from calm
Wind: Calm
Temperature: 61°F , 16°C
Dew Point: 61°F , 16°C
Humidity: 100%
Barometer: 30.13 inHg , 1020.3 hPa
Clouds: Clear
Visibility: 10 miles , 16 km
2022/07/01 06:55 KUKT 010655Z AUTO 00000KT 10SM CLR 16/16 A3013 RMK A01
 
KJRB - Manhattan/Dwntwn, New York, USA
Distance from station: NE 47mi, 75km
Updated: Fri, 01-Jul-2022 2:56am EDT
Clear
Clear
 Wind from calm
Wind: Calm
Temperature: 73°F , 23°C
Dew Point: 63°F , 17°C
Humidity: 69%
Barometer: 30.12 inHg , 1020 hPa
Clouds: Clear
Visibility: 10 miles , 16 km
2022/07/01 06:56 KJRB 010656Z AUTO 00000KT 10SM CLR 23/17 A3012 RMK AO2 SLP197 T02280167
KPTW - Pottstown, Pennsylvania, USA
Distance from station: W 48mi, 77km
Updated: Fri, 01-Jul-2022 2:54am EDT
Clear
Clear
 Wind from calm
Wind: Calm
Temperature: 66°F , 19°C
Dew Point: 63°F , 17°C
Humidity: 88%
Barometer: 30.14 inHg , 1020.7 hPa
Clouds: Clear
Visibility: 10 miles , 16 km
2022/07/01 06:54 KPTW 010654Z AUTO 00000KT 10SM CLR 19/17 A3014 RMK AO2 SLP200 T01940172
 
KCDW - Caldwell, New Jersey, USA
Distance from station: NNE 50mi, 80km
Updated: Fri, 01-Jul-2022 2:53am EDT
Clear
Clear
 Wind from calm
Wind: Calm
Temperature: 68°F , 20°C
Dew Point: 61°F , 16°C
Humidity: 78%
Barometer: 30.12 inHg , 1020 hPa
Clouds: Clear
Visibility: 10 miles , 16 km
2022/07/01 06:53 KCDW 010653Z 00000KT 10SM CLR 20/16 A3012 RMK AO2 SLP202 T02000161